sensor_id;sensor_type;location;lat;lon;timestamp;temperature;humidity
10662;DHT22;5379;51.034;7.006;2022-10-18T00:01:31;19.50;99.90
10662;DHT22;5379;51.034;7.006;2022-10-18T00:03:58;19.40;99.90
10662;DHT22;5379;51.034;7.006;2022-10-18T00:06:25;19.50;99.90
10662;DHT22;5379;51.034;7.006;2022-10-18T00:08:52;19.40;99.90
10662;DHT22;5379;51.034;7.006;2022-10-18T00:11:19;19.40;99.90
10662;DHT22;5379;51.034;7.006;2022-10-18T00:13:48;19.40;99.90
10662;DHT22;5379;51.034;7.006;2022-10-18T00:16:17;19.40;99.90
10662;DHT22;5379;51.034;7.006;2022-10-18T00:18:44;19.40;99.90
10662;DHT22;5379;51.034;7.006;2022-10-18T00:21:14;19.30;99.90
10662;DHT22;5379;51.034;7.006;2022-10-18T00:23:41;19.30;99.90
10662;DHT22;5379;51.034;7.006;2022-10-18T00:26:10;19.30;99.90
10662;DHT22;5379;51.034;7.006;2022-10-18T00:28:39;19.40;99.90
10662;DHT22;5379;51.034;7.006;2022-10-18T00:31:16;19.30;99.90
10662;DHT22;5379;51.034;7.006;2022-10-18T00:33:44;19.30;99.90
10662;DHT22;5379;51.034;7.006;2022-10-18T00:36:12;19.40;99.90
10662;DHT22;5379;51.034;7.006;2022-10-18T00:38:40;19.40;99.90
10662;DHT22;5379;51.034;7.006;2022-10-18T00:41:09;19.40;99.90
10662;DHT22;5379;51.034;7.006;2022-10-18T00:43:54;19.40;99.90
10662;DHT22;5379;51.034;7.006;2022-10-18T00:46:24;19.40;99.90
10662;DHT22;5379;51.034;7.006;2022-10-18T00:48:52;19.40;99.90
10662;DHT22;5379;51.034;7.006;2022-10-18T00:51:21;19.50;99.90
10662;DHT22;5379;51.034;7.006;2022-10-18T00:53:49;19.50;99.90
10662;DHT22;5379;51.034;7.006;2022-10-18T00:56:16;19.60;99.90
10662;DHT22;5379;51.034;7.006;2022-10-18T00:58:45;19.60;99.90
10662;DHT22;5379;51.034;7.006;2022-10-18T01:01:13;19.60;99.90
10662;DHT22;5379;51.034;7.006;2022-10-18T01:03:41;19.60;99.90
10662;DHT22;5379;51.034;7.006;2022-10-18T01:06:09;19.60;99.90
10662;DHT22;5379;51.034;7.006;2022-10-18T01:08:44;19.60;99.90
10662;DHT22;5379;51.034;7.006;2022-10-18T01:11:34;19.60;99.90
10662;DHT22;5379;51.034;7.006;2022-10-18T01:14:12;19.60;99.90
10662;DHT22;5379;51.034;7.006;2022-10-18T01:16:48;19.60;99.90
10662;DHT22;5379;51.034;7.006;2022-10-18T01:19:52;19.60;99.90
10662;DHT22;5379;51.034;7.006;2022-10-18T01:22:25;19.60;99.90
10662;DHT22;5379;51.034;7.006;2022-10-18T01:25:01;21.00;99.90
10662;DHT22;5379;51.034;7.006;2022-10-18T01:30:35;19.50;99.90
10662;DHT22;5379;51.034;7.006;2022-10-18T01:33:11;19.60;99.90
10662;DHT22;5379;51.034;7.006;2022-10-18T01:35:43;19.60;99.90
10662;DHT22;5379;51.034;7.006;2022-10-18T01:38:13;19.60;99.90
10662;DHT22;5379;51.034;7.006;2022-10-18T01:40:44;19.60;99.90
10662;DHT22;5379;51.034;7.006;2022-10-18T01:43:14;19.60;99.90
10662;DHT22;5379;51.034;7.006;2022-10-18T01:45:43;19.60;99.90
10662;DHT22;5379;51.034;7.006;2022-10-18T01:48:11;19.60;99.90
10662;DHT22;5379;51.034;7.006;2022-10-18T01:50:39;19.60;99.90
10662;DHT22;5379;51.034;7.006;2022-10-18T01:53:20;19.60;99.90
10662;DHT22;5379;51.034;7.006;2022-10-18T01:55:54;19.60;99.90
10662;DHT22;5379;51.034;7.006;2022-10-18T01:58:28;19.60;99.90
10662;DHT22;5379;51.034;7.006;2022-10-18T02:01:04;19.60;99.90
10662;DHT22;5379;51.034;7.006;2022-10-18T02:03:34;19.60;99.90
10662;DHT22;5379;51.034;7.006;2022-10-18T02:06:05;19.60;99.90
10662;DHT22;5379;51.034;7.006;2022-10-18T02:08:37;19.60;99.90
10662;DHT22;5379;51.034;7.006;2022-10-18T02:11:06;19.60;99.90
10662;DHT22;5379;51.034;7.006;2022-10-18T02:13:38;19.60;99.90
10662;DHT22;5379;51.034;7.006;2022-10-18T02:16:10;19.70;99.90
10662;DHT22;5379;51.034;7.006;2022-10-18T02:18:41;19.60;99.90
10662;DHT22;5379;51.034;7.006;2022-10-18T02:21:11;19.60;99.90
10662;DHT22;5379;51.034;7.006;2022-10-18T02:23:39;19.70;99.90
10662;DHT22;5379;51.034;7.006;2022-10-18T02:26:07;19.70;99.90
10662;DHT22;5379;51.034;7.006;2022-10-18T02:28:34;19.60;99.90
10662;DHT22;5379;51.034;7.006;2022-10-18T02:31:09;19.60;99.90
10662;DHT22;5379;51.034;7.006;2022-10-18T02:33:41;19.70;99.90
10662;DHT22;5379;51.034;7.006;2022-10-18T02:36:16;19.70;99.90
10662;DHT22;5379;51.034;7.006;2022-10-18T02:38:44;19.70;99.90
10662;DHT22;5379;51.034;7.006;2022-10-18T02:41:12;19.60;99.90
10662;DHT22;5379;51.034;7.006;2022-10-18T02:43:47;19.60;99.90
10662;DHT22;5379;51.034;7.006;2022-10-18T02:46:15;19.60;99.90
10662;DHT22;5379;51.034;7.006;2022-10-18T02:48:43;19.60;99.90
10662;DHT22;5379;51.034;7.006;2022-10-18T02:51:10;19.60;99.90
10662;DHT22;5379;51.034;7.006;2022-10-18T02:53:37;19.60;99.90
10662;DHT22;5379;51.034;7.006;2022-10-18T02:56:05;19.60;99.90
10662;DHT22;5379;51.034;7.006;2022-10-18T02:58:33;19.60;99.90
10662;DHT22;5379;51.034;7.006;2022-10-18T03:01:00;19.50;99.90
10662;DHT22;5379;51.034;7.006;2022-10-18T03:03:29;19.60;99.90
10662;DHT22;5379;51.034;7.006;2022-10-18T03:05:56;19.60;99.90
10662;DHT22;5379;51.034;7.006;2022-10-18T03:08:23;19.60;99.90
10662;DHT22;5379;51.034;7.006;2022-10-18T03:10:51;19.60;99.90
10662;DHT22;5379;51.034;7.006;2022-10-18T03:13:19;19.60;99.90
10662;DHT22;5379;51.034;7.006;2022-10-18T03:15:47;19.50;99.90
10662;DHT22;5379;51.034;7.006;2022-10-18T03:18:14;19.20;99.90
10662;DHT22;5379;51.034;7.006;2022-10-18T03:20:43;19.00;99.90
10662;DHT22;5379;51.034;7.006;2022-10-18T03:23:10;18.90;99.90
10662;DHT22;5379;51.034;7.006;2022-10-18T03:25:37;18.90;99.90
10662;DHT22;5379;51.034;7.006;2022-10-18T03:28:04;18.90;99.90
10662;DHT22;5379;51.034;7.006;2022-10-18T03:30:31;18.90;99.90
10662;DHT22;5379;51.034;7.006;2022-10-18T03:32:59;18.90;99.90
10662;DHT22;5379;51.034;7.006;2022-10-18T03:35:26;18.90;99.90
10662;DHT22;5379;51.034;7.006;2022-10-18T03:37:54;19.00;99.90
10662;DHT22;5379;51.034;7.006;2022-10-18T03:40:21;19.00;99.90
10662;DHT22;5379;51.034;7.006;2022-10-18T03:42:48;19.10;99.90
10662;DHT22;5379;51.034;7.006;2022-10-18T03:45:15;19.10;99.90
10662;DHT22;5379;51.034;7.006;2022-10-18T03:47:42;19.20;99.90
10662;DHT22;5379;51.034;7.006;2022-10-18T03:50:09;19.20;99.90
10662;DHT22;5379;51.034;7.006;2022-10-18T03:52:36;19.20;99.90
10662;DHT22;5379;51.034;7.006;2022-10-18T03:55:06;19.20;99.90
10662;DHT22;5379;51.034;7.006;2022-10-18T03:57:33;19.10;99.90
10662;DHT22;5379;51.034;7.006;2022-10-18T04:00:01;19.10;99.90
10662;DHT22;5379;51.034;7.006;2022-10-18T04:02:33;19.60;99.90
10662;DHT22;5379;51.034;7.006;2022-10-18T04:05:01;19.00;99.90
10662;DHT22;5379;51.034;7.006;2022-10-18T04:07:28;19.20;99.90
10662;DHT22;5379;51.034;7.006;2022-10-18T04:09:56;19.20;99.90
10662;DHT22;5379;51.034;7.006;2022-10-18T04:12:24;19.20;99.90
10662;DHT22;5379;51.034;7.006;2022-10-18T04:14:51;19.20;99.90
10662;DHT22;5379;51.034;7.006;2022-10-18T04:17:19;19.20;99.90
10662;DHT22;5379;51.034;7.006;2022-10-18T04:19:46;19.20;99.90
10662;DHT22;5379;51.034;7.006;2022-10-18T04:22:14;19.20;99.90
10662;DHT22;5379;51.034;7.006;2022-10-18T04:24:42;19.20;99.90
10662;DHT22;5379;51.034;7.006;2022-10-18T04:27:09;19.30;99.90
10662;DHT22;5379;51.034;7.006;2022-10-18T04:29:38;19.20;99.90
10662;DHT22;5379;51.034;7.006;2022-10-18T04:32:06;19.20;99.90
10662;DHT22;5379;51.034;7.006;2022-10-18T04:34:33;19.20;99.90
10662;DHT22;5379;51.034;7.006;2022-10-18T04:37:01;19.20;99.90
10662;DHT22;5379;51.034;7.006;2022-10-18T04:39:29;19.20;99.90
10662;DHT22;5379;51.034;7.006;2022-10-18T04:41:56;19.20;99.90
10662;DHT22;5379;51.034;7.006;2022-10-18T04:44:24;19.20;99.90
10662;DHT22;5379;51.034;7.006;2022-10-18T04:46:53;19.20;99.90
10662;DHT22;5379;51.034;7.006;2022-10-18T04:49:21;19.20;99.90
10662;DHT22;5379;51.034;7.006;2022-10-18T04:51:48;19.20;99.90
10662;DHT22;5379;51.034;7.006;2022-10-18T04:54:18;19.30;99.90
10662;DHT22;5379;51.034;7.006;2022-10-18T04:56:45;19.30;99.90
10662;DHT22;5379;51.034;7.006;2022-10-18T04:59:13;19.30;99.90
10662;DHT22;5379;51.034;7.006;2022-10-18T05:01:40;19.30;99.90
10662;DHT22;5379;51.034;7.006;2022-10-18T05:04:10;19.20;99.90
10662;DHT22;5379;51.034;7.006;2022-10-18T05:06:39;19.20;99.90
10662;DHT22;5379;51.034;7.006;2022-10-18T05:15:24;19.20;99.90
10662;DHT22;5379;51.034;7.006;2022-10-18T05:17:51;19.20;99.90
10662;DHT22;5379;51.034;7.006;2022-10-18T05:20:20;19.20;99.90
10662;DHT22;5379;51.034;7.006;2022-10-18T05:22:48;19.30;99.90
10662;DHT22;5379;51.034;7.006;2022-10-18T05:25:16;19.40;99.90
10662;DHT22;5379;51.034;7.006;2022-10-18T05:27:43;19.30;99.90
10662;DHT22;5379;51.034;7.006;2022-10-18T05:30:11;19.30;99.90
10662;DHT22;5379;51.034;7.006;2022-10-18T05:32:38;19.30;99.90
10662;DHT22;5379;51.034;7.006;2022-10-18T05:35:09;19.30;99.90
10662;DHT22;5379;51.034;7.006;2022-10-18T05:37:38;19.30;99.90
10662;DHT22;5379;51.034;7.006;2022-10-18T05:40:07;19.30;99.90
10662;DHT22;5379;51.034;7.006;2022-10-18T05:42:35;19.30;99.90
10662;DHT22;5379;51.034;7.006;2022-10-18T05:45:03;19.30;99.90
10662;DHT22;5379;51.034;7.006;2022-10-18T05:47:31;19.40;99.90
10662;DHT22;5379;51.034;7.006;2022-10-18T05:49:59;19.40;99.90
10662;DHT22;5379;51.034;7.006;2022-10-18T05:52:27;19.30;99.90
10662;DHT22;5379;51.034;7.006;2022-10-18T05:54:56;19.40;99.90
10662;DHT22;5379;51.034;7.006;2022-10-18T05:57:23;18.50;99.90
10662;DHT22;5379;51.034;7.006;2022-10-18T05:59:51;19.40;99.90
10662;DHT22;5379;51.034;7.006;2022-10-18T06:02:19;19.40;99.90
10662;DHT22;5379;51.034;7.006;2022-10-18T06:04:47;19.40;99.90
10662;DHT22;5379;51.034;7.006;2022-10-18T06:07:15;17.90;99.90
10662;DHT22;5379;51.034;7.006;2022-10-18T06:09:43;19.20;99.90
10662;DHT22;5379;51.034;7.006;2022-10-18T06:12:12;19.40;99.90
10662;DHT22;5379;51.034;7.006;2022-10-18T06:14:42;19.40;99.90
10662;DHT22;5379;51.034;7.006;2022-10-18T06:17:10;19.40;99.90
10662;DHT22;5379;51.034;7.006;2022-10-18T06:19:37;19.40;99.90
10662;DHT22;5379;51.034;7.006;2022-10-18T06:22:04;19.40;99.90
10662;DHT22;5379;51.034;7.006;2022-10-18T06:24:32;19.40;99.90
10662;DHT22;5379;51.034;7.006;2022-10-18T06:26:59;19.40;99.90
10662;DHT22;5379;51.034;7.006;2022-10-18T06:29:30;19.40;99.90
10662;DHT22;5379;51.034;7.006;2022-10-18T06:31:58;19.40;99.90
10662;DHT22;5379;51.034;7.006;2022-10-18T06:34:26;19.40;99.90
10662;DHT22;5379;51.034;7.006;2022-10-18T06:36:53;19.60;99.90
10662;DHT22;5379;51.034;7.006;2022-10-18T06:39:21;19.40;99.90
10662;DHT22;5379;51.034;7.006;2022-10-18T06:41:48;19.40;99.90
10662;DHT22;5379;51.034;7.006;2022-10-18T06:44:15;19.40;99.90
10662;DHT22;5379;51.034;7.006;2022-10-18T06:46:45;19.40;99.90
10662;DHT22;5379;51.034;7.006;2022-10-18T06:49:12;19.40;99.90
10662;DHT22;5379;51.034;7.006;2022-10-18T06:51:40;19.40;99.90
10662;DHT22;5379;51.034;7.006;2022-10-18T06:54:08;19.40;99.90
10662;DHT22;5379;51.034;7.006;2022-10-18T06:56:35;19.40;99.90
10662;DHT22;5379;51.034;7.006;2022-10-18T06:59:02;19.40;99.90
10662;DHT22;5379;51.034;7.006;2022-10-18T07:01:29;19.50;99.90
10662;DHT22;5379;51.034;7.006;2022-10-18T07:03:57;19.50;99.90
10662;DHT22;5379;51.034;7.006;2022-10-18T07:06:24;19.50;99.90
10662;DHT22;5379;51.034;7.006;2022-10-18T07:08:52;19.50;99.90
10662;DHT22;5379;51.034;7.006;2022-10-18T07:11:21;19.60;99.90
10662;DHT22;5379;51.034;7.006;2022-10-18T07:13:50;19.60;99.90
10662;DHT22;5379;51.034;7.006;2022-10-18T07:16:19;19.60;99.90
10662;DHT22;5379;51.034;7.006;2022-10-18T07:18:47;19.70;99.90
10662;DHT22;5379;51.034;7.006;2022-10-18T07:21:19;19.70;99.90
10662;DHT22;5379;51.034;7.006;2022-10-18T07:23:46;19.80;99.90
10662;DHT22;5379;51.034;7.006;2022-10-18T07:26:15;19.80;99.90
10662;DHT22;5379;51.034;7.006;2022-10-18T07:28:43;19.70;99.90
10662;DHT22;5379;51.034;7.006;2022-10-18T07:31:11;19.70;99.90
10662;DHT22;5379;51.034;7.006;2022-10-18T07:33:38;19.70;99.90
10662;DHT22;5379;51.034;7.006;2022-10-18T07:36:09;19.60;99.90
10662;DHT22;5379;51.034;7.006;2022-10-18T07:38:38;19.60;99.90
10662;DHT22;5379;51.034;7.006;2022-10-18T07:41:06;19.60;99.90
10662;DHT22;5379;51.034;7.006;2022-10-18T07:43:34;19.60;99.90
10662;DHT22;5379;51.034;7.006;2022-10-18T07:46:03;19.60;99.90
10662;DHT22;5379;51.034;7.006;2022-10-18T07:48:30;19.60;99.90
10662;DHT22;5379;51.034;7.006;2022-10-18T07:50:58;19.60;99.90
10662;DHT22;5379;51.034;7.006;2022-10-18T07:53:25;19.60;99.90
10662;DHT22;5379;51.034;7.006;2022-10-18T07:55:57;19.70;99.90
10662;DHT22;5379;51.034;7.006;2022-10-18T07:58:24;19.70;99.90
10662;DHT22;5379;51.034;7.006;2022-10-18T08:00:52;19.70;99.90
10662;DHT22;5379;51.034;7.006;2022-10-18T08:03:19;19.70;99.90
10662;DHT22;5379;51.034;7.006;2022-10-18T08:05:51;19.80;99.90
10662;DHT22;5379;51.034;7.006;2022-10-18T08:08:18;19.80;99.90
10662;DHT22;5379;51.034;7.006;2022-10-18T08:10:45;19.80;99.90
10662;DHT22;5379;51.034;7.006;2022-10-18T08:13:14;19.80;99.90
10662;DHT22;5379;51.034;7.006;2022-10-18T08:15:41;19.80;99.90
10662;DHT22;5379;51.034;7.006;2022-10-18T08:18:09;19.80;99.90
10662;DHT22;5379;51.034;7.006;2022-10-18T08:20:36;19.80;99.90
10662;DHT22;5379;51.034;7.006;2022-10-18T08:23:04;19.80;99.90
10662;DHT22;5379;51.034;7.006;2022-10-18T08:25:31;19.80;99.90
10662;DHT22;5379;51.034;7.006;2022-10-18T08:27:58;19.80;99.90
10662;DHT22;5379;51.034;7.006;2022-10-18T08:30:27;19.90;99.90
10662;DHT22;5379;51.034;7.006;2022-10-18T08:32:54;19.90;99.90
10662;DHT22;5379;51.034;7.006;2022-10-18T08:35:21;19.90;99.90
10662;DHT22;5379;51.034;7.006;2022-10-18T08:37:48;19.90;99.90
10662;DHT22;5379;51.034;7.006;2022-10-18T08:40:16;19.90;99.90
10662;DHT22;5379;51.034;7.006;2022-10-18T08:42:56;19.90;99.90
10662;DHT22;5379;51.034;7.006;2022-10-18T08:45:26;19.80;99.90
10662;DHT22;5379;51.034;7.006;2022-10-18T08:47:55;19.80;99.90
10662;DHT22;5379;51.034;7.006;2022-10-18T08:50:25;19.80;99.90
10662;DHT22;5379;51.034;7.006;2022-10-18T08:52:57;19.80;99.90
10662;DHT22;5379;51.034;7.006;2022-10-18T08:55:28;19.90;99.90
10662;DHT22;5379;51.034;7.006;2022-10-18T08:58:01;19.80;99.90
10662;DHT22;5379;51.034;7.006;2022-10-18T09:00:33;19.90;99.90
10662;DHT22;5379;51.034;7.006;2022-10-18T09:03:15;19.90;99.90
10662;DHT22;5379;51.034;7.006;2022-10-18T09:05:49;19.90;99.90
10662;DHT22;5379;51.034;7.006;2022-10-18T09:08:42;19.90;99.90
10662;DHT22;5379;51.034;7.006;2022-10-18T09:11:23;19.90;99.90
10662;DHT22;5379;51.034;7.006;2022-10-18T09:16:56;19.90;99.90
10662;DHT22;5379;51.034;7.006;2022-10-18T09:19:30;19.90;99.90
10662;DHT22;5379;51.034;7.006;2022-10-18T09:22:06;19.90;99.90
10662;DHT22;5379;51.034;7.006;2022-10-18T09:24:39;19.80;99.90
10662;DHT22;5379;51.034;7.006;2022-10-18T09:27:13;19.90;99.90
10662;DHT22;5379;51.034;7.006;2022-10-18T09:29:53;19.90;99.90
10662;DHT22;5379;51.034;7.006;2022-10-18T09:32:31;19.90;99.90
10662;DHT22;5379;51.034;7.006;2022-10-18T09:35:03;19.90;99.90
10662;DHT22;5379;51.034;7.006;2022-10-18T09:37:38;19.90;99.90
10662;DHT22;5379;51.034;7.006;2022-10-18T09:40:13;19.90;99.90
10662;DHT22;5379;51.034;7.006;2022-10-18T09:42:51;20.00;99.90
10662;DHT22;5379;51.034;7.006;2022-10-18T09:45:24;20.10;99.90
10662;DHT22;5379;51.034;7.006;2022-10-18T09:48:00;20.10;99.90
10662;DHT22;5379;51.034;7.006;2022-10-18T09:50:33;20.10;99.90
10662;DHT22;5379;51.034;7.006;2022-10-18T09:53:09;20.10;99.90
10662;DHT22;5379;51.034;7.006;2022-10-18T09:55:41;20.20;99.90
10662;DHT22;5379;51.034;7.006;2022-10-18T09:58:10;20.20;99.90
10662;DHT22;5379;51.034;7.006;2022-10-18T10:00:45;20.30;99.90
10662;DHT22;5379;51.034;7.006;2022-10-18T10:03:15;20.30;99.90
10662;DHT22;5379;51.034;7.006;2022-10-18T10:05:43;20.30;99.90
10662;DHT22;5379;51.034;7.006;2022-10-18T10:08:10;20.30;99.90
10662;DHT22;5379;51.034;7.006;2022-10-18T10:10:39;20.30;99.90
10662;DHT22;5379;51.034;7.006;2022-10-18T10:13:14;20.20;99.90
10662;DHT22;5379;51.034;7.006;2022-10-18T10:15:45;20.20;99.90
10662;DHT22;5379;51.034;7.006;2022-10-18T10:18:19;20.20;99.90
10662;DHT22;5379;51.034;7.006;2022-10-18T10:20:49;20.30;99.90
10662;DHT22;5379;51.034;7.006;2022-10-18T10:23:20;20.40;99.90
10662;DHT22;5379;51.034;7.006;2022-10-18T10:25:51;20.50;99.90
10662;DHT22;5379;51.034;7.006;2022-10-18T10:28:20;20.60;99.90
10662;DHT22;5379;51.034;7.006;2022-10-18T10:30:48;20.70;99.90
10662;DHT22;5379;51.034;7.006;2022-10-18T10:33:33;20.70;99.90
10662;DHT22;5379;51.034;7.006;2022-10-18T10:36:02;20.70;99.90
10662;DHT22;5379;51.034;7.006;2022-10-18T10:38:29;20.70;99.90
10662;DHT22;5379;51.034;7.006;2022-10-18T10:40:57;20.70;99.90
10662;DHT22;5379;51.034;7.006;2022-10-18T10:43:26;20.70;99.90
10662;DHT22;5379;51.034;7.006;2022-10-18T10:46:02;20.80;99.90
10662;DHT22;5379;51.034;7.006;2022-10-18T10:48:32;20.80;99.90
10662;DHT22;5379;51.034;7.006;2022-10-18T10:51:03;20.80;99.90
10662;DHT22;5379;51.034;7.006;2022-10-18T10:53:39;20.90;99.90
10662;DHT22;5379;51.034;7.006;2022-10-18T10:56:15;20.90;99.90
10662;DHT22;5379;51.034;7.006;2022-10-18T10:58:43;21.00;99.90
10662;DHT22;5379;51.034;7.006;2022-10-18T11:01:30;21.00;99.90
10662;DHT22;5379;51.034;7.006;2022-10-18T11:04:01;20.90;99.90
10662;DHT22;5379;51.034;7.006;2022-10-18T11:06:38;20.90;99.90
10662;DHT22;5379;51.034;7.006;2022-10-18T11:09:22;20.80;99.90
10662;DHT22;5379;51.034;7.006;2022-10-18T11:12:00;20.80;99.90
10662;DHT22;5379;51.034;7.006;2022-10-18T11:14:33;20.90;99.90
10662;DHT22;5379;51.034;7.006;2022-10-18T11:17:11;21.10;99.90
10662;DHT22;5379;51.034;7.006;2022-10-18T11:19:54;21.20;99.90
10662;DHT22;5379;51.034;7.006;2022-10-18T11:22:24;21.40;99.90
10662;DHT22;5379;51.034;7.006;2022-10-18T11:24:53;21.50;99.90
10662;DHT22;5379;51.034;7.006;2022-10-18T11:27:25;21.80;99.90
10662;DHT22;5379;51.034;7.006;2022-10-18T11:30:03;21.90;99.90
10662;DHT22;5379;51.034;7.006;2022-10-18T11:32:39;21.90;99.90
10662;DHT22;5379;51.034;7.006;2022-10-18T11:35:22;21.90;99.90
10662;DHT22;5379;51.034;7.006;2022-10-18T11:38:05;21.80;99.90
10662;DHT22;5379;51.034;7.006;2022-10-18T11:40:55;21.70;99.90
10662;DHT22;5379;51.034;7.006;2022-10-18T11:43:29;21.60;99.90
10662;DHT22;5379;51.034;7.006;2022-10-18T11:46:02;21.50;99.90
10662;DHT22;5379;51.034;7.006;2022-10-18T11:49:02;21.50;99.90
10662;DHT22;5379;51.034;7.006;2022-10-18T11:51:42;21.40;99.90
10662;DHT22;5379;51.034;7.006;2022-10-18T11:54:33;21.40;99.90
10662;DHT22;5379;51.034;7.006;2022-10-18T11:57:09;21.50;99.90
10662;DHT22;5379;51.034;7.006;2022-10-18T11:59:44;21.50;99.90
10662;DHT22;5379;51.034;7.006;2022-10-18T12:02:36;21.50;99.90
10662;DHT22;5379;51.034;7.006;2022-10-18T12:05:09;21.60;99.90
10662;DHT22;5379;51.034;7.006;2022-10-18T12:07:42;21.80;99.90
10662;DHT22;5379;51.034;7.006;2022-10-18T12:10:16;21.70;99.90
10662;DHT22;5379;51.034;7.006;2022-10-18T12:12:49;21.80;99.90
10662;DHT22;5379;51.034;7.006;2022-10-18T12:15:19;21.90;99.90
10662;DHT22;5379;51.034;7.006;2022-10-18T12:17:49;22.60;99.90
10662;DHT22;5379;51.034;7.006;2022-10-18T12:20:22;23.00;99.90
10662;DHT22;5379;51.034;7.006;2022-10-18T12:22:58;23.50;99.90
10662;DHT22;5379;51.034;7.006;2022-10-18T12:25:27;23.80;99.90
10662;DHT22;5379;51.034;7.006;2022-10-18T12:27:57;23.60;99.90
10662;DHT22;5379;51.034;7.006;2022-10-18T12:30:30;23.80;99.90
10662;DHT22;5379;51.034;7.006;2022-10-18T12:33:04;23.80;99.90
10662;DHT22;5379;51.034;7.006;2022-10-18T12:35:42;24.00;99.90
10662;DHT22;5379;51.034;7.006;2022-10-18T12:38:19;24.10;99.90
10662;DHT22;5379;51.034;7.006;2022-10-18T12:40:49;24.10;99.90
10662;DHT22;5379;51.034;7.006;2022-10-18T13:07:36;24.30;99.90
10662;DHT22;5379;51.034;7.006;2022-10-18T13:10:39;24.30;99.90
10662;DHT22;5379;51.034;7.006;2022-10-18T13:16:02;24.20;99.90
10662;DHT22;5379;51.034;7.006;2022-10-18T13:18:43;23.90;99.90
10662;DHT22;5379;51.034;7.006;2022-10-18T13:21:19;24.00;99.90
10662;DHT22;5379;51.034;7.006;2022-10-18T13:24:13;23.50;99.90
10662;DHT22;5379;51.034;7.006;2022-10-18T13:26:54;23.60;99.90
10662;DHT22;5379;51.034;7.006;2022-10-18T13:29:36;23.60;99.90
10662;DHT22;5379;51.034;7.006;2022-10-18T13:32:16;23.90;99.90
10662;DHT22;5379;51.034;7.006;2022-10-18T13:34:48;23.90;99.90
10662;DHT22;5379;51.034;7.006;2022-10-18T13:37:21;24.00;99.90
10662;DHT22;5379;51.034;7.006;2022-10-18T13:39:50;23.80;99.90
10662;DHT22;5379;51.034;7.006;2022-10-18T13:42:29;23.70;99.90
10662;DHT22;5379;51.034;7.006;2022-10-18T13:45:43;23.70;99.90
10662;DHT22;5379;51.034;7.006;2022-10-18T13:48:44;24.10;99.90
10662;DHT22;5379;51.034;7.006;2022-10-18T13:51:32;23.90;99.90
10662;DHT22;5379;51.034;7.006;2022-10-18T13:54:11;24.10;99.90
10662;DHT22;5379;51.034;7.006;2022-10-18T13:57:07;23.90;99.90
10662;DHT22;5379;51.034;7.006;2022-10-18T13:59:54;23.90;99.90
10662;DHT22;5379;51.034;7.006;2022-10-18T14:02:41;23.90;99.90
10662;DHT22;5379;51.034;7.006;2022-10-18T14:05:21;23.90;99.90
10662;DHT22;5379;51.034;7.006;2022-10-18T14:07:58;24.00;99.90
10662;DHT22;5379;51.034;7.006;2022-10-18T14:10:35;24.00;99.90
10662;DHT22;5379;51.034;7.006;2022-10-18T14:13:06;23.70;99.90
10662;DHT22;5379;51.034;7.006;2022-10-18T14:15:42;24.10;99.90
10662;DHT22;5379;51.034;7.006;2022-10-18T14:18:14;24.20;99.90
10662;DHT22;5379;51.034;7.006;2022-10-18T14:20:46;24.20;99.90
10662;DHT22;5379;51.034;7.006;2022-10-18T14:23:16;24.00;99.90
10662;DHT22;5379;51.034;7.006;2022-10-18T14:25:46;23.90;99.90
10662;DHT22;5379;51.034;7.006;2022-10-18T14:28:16;24.10;99.90
10662;DHT22;5379;51.034;7.006;2022-10-18T14:30:55;23.70;99.90
10662;DHT22;5379;51.034;7.006;2022-10-18T14:33:29;23.90;99.90
10662;DHT22;5379;51.034;7.006;2022-10-18T14:36:02;23.80;99.90
10662;DHT22;5379;51.034;7.006;2022-10-18T14:38:30;24.20;99.90
10662;DHT22;5379;51.034;7.006;2022-10-18T14:41:13;24.10;99.90
10662;DHT22;5379;51.034;7.006;2022-10-18T14:43:41;24.10;99.90
10662;DHT22;5379;51.034;7.006;2022-10-18T14:46:16;24.10;99.90
10662;DHT22;5379;51.034;7.006;2022-10-18T14:48:51;24.30;99.90
10662;DHT22;5379;51.034;7.006;2022-10-18T14:51:18;24.50;99.90
10662;DHT22;5379;51.034;7.006;2022-10-18T14:53:46;24.10;99.90
10662;DHT22;5379;51.034;7.006;2022-10-18T14:56:21;24.10;99.90
10662;DHT22;5379;51.034;7.006;2022-10-18T14:58:49;24.20;99.90
10662;DHT22;5379;51.034;7.006;2022-10-18T15:01:20;24.40;99.90
10662;DHT22;5379;51.034;7.006;2022-10-18T15:03:49;24.30;99.90
10662;DHT22;5379;51.034;7.006;2022-10-18T15:06:18;24.30;99.90
10662;DHT22;5379;51.034;7.006;2022-10-18T15:11:15;24.30;99.90
10662;DHT22;5379;51.034;7.006;2022-10-18T15:13:47;24.10;99.90
10662;DHT22;5379;51.034;7.006;2022-10-18T15:16:16;24.10;99.90
10662;DHT22;5379;51.034;7.006;2022-10-18T15:18:59;24.30;99.90
10662;DHT22;5379;51.034;7.006;2022-10-18T15:21:26;24.30;99.90
10662;DHT22;5379;51.034;7.006;2022-10-18T15:23:53;24.30;99.90
10662;DHT22;5379;51.034;7.006;2022-10-18T15:26:24;24.40;99.90
10662;DHT22;5379;51.034;7.006;2022-10-18T15:28:52;24.30;99.90
10662;DHT22;5379;51.034;7.006;2022-10-18T15:31:24;24.20;99.90
10662;DHT22;5379;51.034;7.006;2022-10-18T15:34:06;24.60;99.90
10662;DHT22;5379;51.034;7.006;2022-10-18T15:36:34;24.50;99.90
10662;DHT22;5379;51.034;7.006;2022-10-18T15:39:06;24.60;99.90
10662;DHT22;5379;51.034;7.006;2022-10-18T15:41:46;24.50;99.90
10662;DHT22;5379;51.034;7.006;2022-10-18T15:44:21;24.30;99.90
10662;DHT22;5379;51.034;7.006;2022-10-18T15:46:49;24.20;99.90
10662;DHT22;5379;51.034;7.006;2022-10-18T15:49:49;24.10;99.90
10662;DHT22;5379;51.034;7.006;2022-10-18T15:52:37;23.80;99.90
10662;DHT22;5379;51.034;7.006;2022-10-18T15:58:22;23.80;99.90
10662;DHT22;5379;51.034;7.006;2022-10-18T16:00:50;23.70;99.90
10662;DHT22;5379;51.034;7.006;2022-10-18T16:03:18;23.60;99.90
10662;DHT22;5379;51.034;7.006;2022-10-18T16:05:52;23.70;99.90
10662;DHT22;5379;51.034;7.006;2022-10-18T16:08:22;23.50;99.90
10662;DHT22;5379;51.034;7.006;2022-10-18T16:10:50;23.50;99.90
10662;DHT22;5379;51.034;7.006;2022-10-18T16:13:17;23.40;99.90
10662;DHT22;5379;51.034;7.006;2022-10-18T16:15:44;23.30;99.90
10662;DHT22;5379;51.034;7.006;2022-10-18T16:18:14;23.30;99.90
10662;DHT22;5379;51.034;7.006;2022-10-18T16:20:41;23.30;99.90
10662;DHT22;5379;51.034;7.006;2022-10-18T16:23:19;23.20;99.90
10662;DHT22;5379;51.034;7.006;2022-10-18T16:25:47;23.20;99.90
10662;DHT22;5379;51.034;7.006;2022-10-18T16:28:15;23.10;99.90
10662;DHT22;5379;51.034;7.006;2022-10-18T16:30:45;23.00;99.90
10662;DHT22;5379;51.034;7.006;2022-10-18T16:33:12;23.10;99.90
10662;DHT22;5379;51.034;7.006;2022-10-18T16:35:39;22.80;99.90
10662;DHT22;5379;51.034;7.006;2022-10-18T16:38:13;22.70;99.90
10662;DHT22;5379;51.034;7.006;2022-10-18T16:40:46;22.50;99.90
10662;DHT22;5379;51.034;7.006;2022-10-18T16:43:13;22.30;99.90
10662;DHT22;5379;51.034;7.006;2022-10-18T16:45:40;22.30;99.90
10662;DHT22;5379;51.034;7.006;2022-10-18T16:48:09;22.30;99.90
10662;DHT22;5379;51.034;7.006;2022-10-18T16:50:38;22.10;99.90
10662;DHT22;5379;51.034;7.006;2022-10-18T16:53:06;22.10;99.90
10662;DHT22;5379;51.034;7.006;2022-10-18T16:55:33;21.70;99.90
10662;DHT22;5379;51.034;7.006;2022-10-18T16:58:01;21.10;99.90